Jonni Ritscher — A8JT7 — position and weather

sailwx.info

Track history (hours):
 
Tides and Currents Weather Stations Pressure Air Temp Water Temp Dewpoint Dewpoint Depression Visibility Wind Speed Wind Dir Waves Ship Positions

Jonni Ritscher

Last reported at 2014-Sep-21 18:29 UTC. Time now 2014-Sep-22 16:18 UTC.
Position N 57°50' E 010°22'.

Length 178 m; draft 10.3 m.

Type: Ship. MMSI: 636091136.

Date/timePositionNaut miles runAvg speedWind from/ knotsBaromVisibWave heightAir tempDewpointWater temp
2014-Sep-21 18:29N 57°50' E 010°22'1516.4
2014-Sep-21 17:33N 57°46' E 010°50'1716.6
2014-Sep-21 16:33N 57°35' E 011°12'1515.3
2014-Sep-21 15:33N 57°22' E 011°29'1616.0
2014-Sep-21 14:33N 57°07' E 011°39'1616.1
2014-Sep-21 13:33N 56°52' E 011°49'1515.1
2014-Sep-21 12:33N 56°37' E 011°45'12014.9
2014-Sep-21 04:33N 54°41' E 010°56'1616.2
2014-Sep-21 03:33N 54°33' E 011°20'1616.4
2014-Sep-21 02:33N 54°26' E 011°46'1515.3
2014-Sep-21 01:33N 54°29' E 012°12'1615.8
2014-Sep-21 00:33N 54°41' E 012°29'1716.8
2014-Sep-20 23:33N 54°50' E 012°54'1716.7
2014-Sep-20 22:33N 54°56' E 013°21'1716.5
2014-Sep-20 21:33N 55°01' E 013°48'1616.1
2014-Sep-20 20:33N 55°10' E 014°12'1716.8
2014-Sep-20 19:33N 55°23' E 014°30'1716.8
2014-Sep-20 18:33N 55°33' E 014°54'1716.8
2014-Sep-20 17:33N 55°41' E 015°20'1817.0
2014-Sep-20 16:31N 55°50' E 015°47'1617.0
2014-Sep-20 15:33N 55°58' E 016°13'8517.0
2014-Sep-20 10:33N 56°47' E 018°17'1717.1
2014-Sep-20 09:33N 56°60' E 018°38'4117.1
2014-Sep-20 07:10N 57°31' E 019°27'1117.0
2014-Sep-20 06:32N 57°40' E 019°39'8617.3
2014-Sep-20 01:34N 58°51' E 021°11'1717.0
2014-Sep-20 00:33N 59°05' E 021°30'3416.9
2014-Sep-19 22:34N 59°27' E 022°19'1716.7
2014-Sep-19 21:32N 59°34' E 022°50'1917.0
2014-Sep-19 20:25N 59°39' E 023°26'1517.0
2014-Sep-19 19:34N 59°43' E 023°54'1717.1
2014-Sep-19 18:33N 59°47' E 024°27'1817.2
2014-Sep-19 17:32N 59°51' E 025°01'1717.1
2014-Sep-19 16:34N 59°54' E 025°34'1717.1
2014-Sep-19 15:33N 59°58' E 026°07'1716.7
2014-Sep-19 14:34N 60°01' E 026°40'10214.6
2014-Sep-19 07:32N 59°54' E 030°04'5 5.0
2014-Sep-19 06:33N 59°54' E 030°14'0 0.0
2014-Sep-19 05:32N 59°54' E 030°14'0 0.1
2014-Sep-19 04:31N 59°54' E 030°14'0 0.1
2014-Sep-19 03:31N 59°54' E 030°14'0 0.0
2014-Sep-19 02:31N 59°54' E 030°14'0 0.0
2014-Sep-19 01:33N 59°54' E 030°14'0 0.1
2014-Sep-19 00:33N 59°54' E 030°14'0 0.1
2014-Sep-18 23:32N 59°54' E 030°14'0 0.0
2014-Sep-18 22:32N 59°54' E 030°14'0 0.0
2014-Sep-18 21:31N 59°54' E 030°14'0 0.1
2014-Sep-18 20:28N 59°54' E 030°14'0 0.1
2014-Sep-18 19:31N 59°54' E 030°14'0 0.1
2014-Sep-18 18:33N 59°54' E 030°14'0 0.1
2014-Sep-18 17:33N 59°54' E 030°14'0 0.0
2014-Sep-18 16:32N 59°54' E 030°14'1 0.1
2014-Sep-18 05:29N 59°53' E 030°12'0 0.0
2014-Sep-18 04:33N 59°53' E 030°12'0 0.0
2014-Sep-18 03:33N 59°53' E 030°12'0 0.0
2014-Sep-18 02:29N 59°53' E 030°12'0 0.0
2014-Sep-18 01:08N 59°53' E 030°12'0 0.1
2014-Sep-18 00:04N 59°53' E 030°12'0 0.0
2014-Sep-17 23:25N 59°53' E 030°12'0 0.1
2014-Sep-17 22:25N 59°53' E 030°12'0 0.1
2014-Sep-17 21:33N 59°53' E 030°12'0 0.0
2014-Sep-17 19:24N 59°53' E 030°12'0 0.0
2014-Sep-17 18:27N 59°53' E 030°12'0 0.1
2014-Sep-17 17:31N 59°53' E 030°12'0 0.0
2014-Sep-17 16:33N 59°53' E 030°12'95 3.3
2014-Sep-16 11:28N 59°58' E 027°02'1415.3
2014-Sep-16 10:32N 59°59' E 026°34'1711.9
2014-Sep-16 09:06N 59°54' E 026°01'2713.3
2014-Sep-16 07:05N 59°48' E 025°09'1215.9
2014-Sep-16 06:18N 59°46' E 024°45'1317.0
2014-Sep-16 05:34N 59°43' E 024°20'1515.0
2014-Sep-16 04:33N 59°39' E 023°52'1515.0
2014-Sep-16 03:33N 59°33' E 023°24'1715.2
2014-Sep-16 02:25N 59°27' E 022°52'15814.5
2014-Sep-15 15:28N 57°30' E 019°29'1213.7
2014-Sep-15 14:33N 57°20' E 019°15'1413.9
2014-Sep-15 13:33N 57°09' E 018°59'1413.7
2014-Sep-15 12:32N 56°58' E 018°44'1613.7
2014-Sep-15 11:24N 56°46' E 018°25'1313.4
2014-Sep-15 10:26N 56°38' E 018°06'1515.5
2014-Sep-15 09:29N 56°29' E 017°45'1716.2
2014-Sep-15 08:27N 56°19' E 017°21'1516.2
2014-Sep-15 07:30N 56°09' E 016°60'1616.1
2014-Sep-15 06:31N 55°60' E 016°37'4016.8
2014-Sep-15 04:08N 55°40' E 015°35'916.4
2014-Sep-15 03:33N 55°36' E 015°20'1616.4
2014-Sep-15 02:34N 55°28' E 014°54'1616.4
2014-Sep-15 01:33N 55°18' E 014°31'1616.4
2014-Sep-15 00:34N 55°05' E 014°14'1615.9
2014-Sep-14 23:34N 54°58' E 013°49'1616.1
2014-Sep-14 22:33N 54°53' E 013°23'1615.8
2014-Sep-14 21:33N 54°48' E 012°57'1515.3
2014-Sep-14 20:33N 54°41' E 012°33'1414.4
2014-Sep-14 19:34N 54°31' E 012°15'1313.0
2014-Sep-14 18:33N 54°24' E 011°56'1515.1
2014-Sep-14 17:34N 54°29' E 011°31'1615.5
2014-Sep-14 16:34N 54°36' E 011°07'1713.4
2014-Sep-14 15:16N 54°51' E 010°51'9914.3
2014-Sep-14 08:22N 56°27' E 011°33'1416.6
2014-Sep-14 07:33N 56°38' E 011°45'1515.0
2014-Sep-14 06:33N 56°53' E 011°47'1817.8
2014-Sep-14 05:33N 57°10' E 011°36'1616.2
2014-Sep-14 04:33N 57°25' E 011°26'1615.9
2014-Sep-14 03:33N 57°37' E 011°06'1616.0
2014-Sep-14 02:33N 57°48' E 010°43'8115.9
2014-Sep-13 21:26N 57°12' E 008°27'4816.4
2014-Sep-13 18:28N 56°30' E 007°43'2016.9
2014-Sep-13 17:16N 56°11' E 007°34'1216.8
2014-Sep-13 16:33N 55°59' E 007°29'1716.9
2014-Sep-13 15:32N 55°42' E 007°21'1616.6
2014-Sep-13 14:33N 55°26' E 007°23'1616.5
2014-Sep-13 13:33N 55°10' E 007°26'1616.2
2014-Sep-13 12:33N 54°54' E 007°28'1615.9
2014-Sep-13 11:33N 54°38' E 007°29'1615.8
2014-Sep-13 10:33N 54°22' E 007°34'1615.7
2014-Sep-13 09:33N 54°09' E 007°48'1616.1
2014-Sep-13 08:33N 54°00' E 008°11'1817.6
2014-Sep-13 07:33N 53°56' E 008°40'1514.9
2014-Sep-13 06:33N 53°53' E 009°05'1212.2
2014-Sep-13 05:33N 53°47' E 009°23'1212.0
2014-Sep-13 04:33N 53°37' E 009°34'9 9.3
2014-Sep-13 03:33N 53°33' E 009°48'4 3.6
2014-Sep-13 02:28N 53°32' E 009°55'0 0.0
2014-Sep-13 01:33N 53°32' E 009°55'0 0.0
2014-Sep-13 00:33N 53°32' E 009°55'0 0.0
2014-Sep-12 23:30N 53°32' E 009°55'0 0.0
2014-Sep-12 22:29N 53°32' E 009°55'0 0.0
2014-Sep-12 21:26N 53°32' E 009°55'0 0.0
2014-Sep-12 20:28N 53°32' E 009°55'0 0.0
2014-Sep-12 19:25N 53°32' E 009°55'0 0.0
2014-Sep-12 18:31N 53°32' E 009°55'0 0.0
2014-Sep-12 17:33N 53°32' E 009°55'0 0.0
2014-Sep-12 16:33N 53°32' E 009°55'0 0.0
2014-Sep-12 15:33N 53°32' E 009°55'0 0.0
2014-Sep-12 14:33N 53°32' E 009°55'0 0.0
2014-Sep-12 13:30N 53°32' E 009°55'0 0.0
2014-Sep-12 12:32N 53°32' E 009°55'0 0.0
2014-Sep-12 11:29N 53°32' E 009°55'0 0.0
2014-Sep-12 10:31N 53°32' E 009°55'0 0.1
2014-Sep-12 09:33N 53°32' E 009°55'0 0.1
2014-Sep-12 08:28N 53°32' E 009°55'0 0.0
2014-Sep-12 07:33N 53°32' E 009°55'0 0.0
2014-Sep-12 06:33N 53°32' E 009°55'0 0.0
2014-Sep-12 05:33N 53°32' E 009°55'1 1.1
2014-Sep-12 04:33N 53°32' E 009°53'9 8.6
2014-Sep-12 03:33N 53°34' E 009°39'1211.8
2014-Sep-12 02:34N 53°44' E 009°27'1312.7
2014-Sep-12 01:33N 53°53' E 009°12'1111.0
2014-Sep-12 00:33N 53°50' E 008°53'1212.1
2014-Sep-11 23:33N 53°57' E 008°37'1514.9
2014-Sep-11 22:33N 53°60' E 008°12'9 9.2
2014-Sep-11 21:34N 53°58' E 007°56'  
Track history (hours):
 
Tides and Currents Weather Stations Pressure Air Temp Water Temp Dewpoint Dewpoint Depression Visibility Wind Speed Wind Dir Waves Ship Positions

Jonni Ritscher

Last reported at 2014-Sep-21 18:29 UTC. Time now 2014-Sep-22 16:18 UTC.
Position N 57°50' E 010°22'.

Length 178 m; draft 10.3 m.

Type: Ship. MMSI: 636091136.

Date/timePositionNaut miles runAvg speedWind from/ knotsBaromVisibWave heightAir tempDewpointWater temp
2014-Sep-21 18:29N 57°50' E 010°22'1516.4
2014-Sep-21 17:33N 57°46' E 010°50'1716.6
2014-Sep-21 16:33N 57°35' E 011°12'1515.3
2014-Sep-21 15:33N 57°22' E 011°29'1616.0
2014-Sep-21 14:33N 57°07' E 011°39'1616.1
2014-Sep-21 13:33N 56°52' E 011°49'1515.1
2014-Sep-21 12:33N 56°37' E 011°45'12014.9
2014-Sep-21 04:33N 54°41' E 010°56'1616.2
2014-Sep-21 03:33N 54°33' E 011°20'1616.4
2014-Sep-21 02:33N 54°26' E 011°46'1515.3
2014-Sep-21 01:33N 54°29' E 012°12'1615.8
2014-Sep-21 00:33N 54°41' E 012°29'1716.8
2014-Sep-20 23:33N 54°50' E 012°54'1716.7
2014-Sep-20 22:33N 54°56' E 013°21'1716.5
2014-Sep-20 21:33N 55°01' E 013°48'1616.1
2014-Sep-20 20:33N 55°10' E 014°12'1716.8
2014-Sep-20 19:33N 55°23' E 014°30'1716.8
2014-Sep-20 18:33N 55°33' E 014°54'1716.8
2014-Sep-20 17:33N 55°41' E 015°20'1817.0
2014-Sep-20 16:31N 55°50' E 015°47'1617.0
2014-Sep-20 15:33N 55°58' E 016°13'8517.0
2014-Sep-20 10:33N 56°47' E 018°17'1717.1
2014-Sep-20 09:33N 56°60' E 018°38'4117.1
2014-Sep-20 07:10N 57°31' E 019°27'1117.0
2014-Sep-20 06:32N 57°40' E 019°39'8617.3
2014-Sep-20 01:34N 58°51' E 021°11'1717.0
2014-Sep-20 00:33N 59°05' E 021°30'3416.9
2014-Sep-19 22:34N 59°27' E 022°19'1716.7
2014-Sep-19 21:32N 59°34' E 022°50'1917.0
2014-Sep-19 20:25N 59°39' E 023°26'1517.0
2014-Sep-19 19:34N 59°43' E 023°54'1717.1
2014-Sep-19 18:33N 59°47' E 024°27'1817.2
2014-Sep-19 17:32N 59°51' E 025°01'1717.1
2014-Sep-19 16:34N 59°54' E 025°34'1717.1
2014-Sep-19 15:33N 59°58' E 026°07'1716.7
2014-Sep-19 14:34N 60°01' E 026°40'10214.6
2014-Sep-19 07:32N 59°54' E 030°04'5 5.0
2014-Sep-19 06:33N 59°54' E 030°14'0 0.0
2014-Sep-19 05:32N 59°54' E 030°14'0 0.1
2014-Sep-19 04:31N 59°54' E 030°14'0 0.1
2014-Sep-19 03:31N 59°54' E 030°14'0 0.0
2014-Sep-19 02:31N 59°54' E 030°14'0 0.0
2014-Sep-19 01:33N 59°54' E 030°14'0 0.1
2014-Sep-19 00:33N 59°54' E 030°14'0 0.1
2014-Sep-18 23:32N 59°54' E 030°14'0 0.0
2014-Sep-18 22:32N 59°54' E 030°14'0 0.0
2014-Sep-18 21:31N 59°54' E 030°14'0 0.1
2014-Sep-18 20:28N 59°54' E 030°14'0 0.1
2014-Sep-18 19:31N 59°54' E 030°14'0 0.1
2014-Sep-18 18:33N 59°54' E 030°14'0 0.1
2014-Sep-18 17:33N 59°54' E 030°14'0 0.0
2014-Sep-18 16:32N 59°54' E 030°14'1 0.1
2014-Sep-18 05:29N 59°53' E 030°12'0 0.0
2014-Sep-18 04:33N 59°53' E 030°12'0 0.0
2014-Sep-18 03:33N 59°53' E 030°12'0 0.0
2014-Sep-18 02:29N 59°53' E 030°12'0 0.0
2014-Sep-18 01:08N 59°53' E 030°12'0 0.1
2014-Sep-18 00:04N 59°53' E 030°12'0 0.0
2014-Sep-17 23:25N 59°53' E 030°12'0 0.1
2014-Sep-17 22:25N 59°53' E 030°12'0 0.1
2014-Sep-17 21:33N 59°53' E 030°12'0 0.0
2014-Sep-17 19:24N 59°53' E 030°12'0 0.0
2014-Sep-17 18:27N 59°53' E 030°12'0 0.1
2014-Sep-17 17:31N 59°53' E 030°12'0 0.0
2014-Sep-17 16:33N 59°53' E 030°12'95 3.3
2014-Sep-16 11:28N 59°58' E 027°02'1415.3
2014-Sep-16 10:32N 59°59' E 026°34'1711.9
2014-Sep-16 09:06N 59°54' E 026°01'2713.3
2014-Sep-16 07:05N 59°48' E 025°09'1215.9
2014-Sep-16 06:18N 59°46' E 024°45'1317.0
2014-Sep-16 05:34N 59°43' E 024°20'1515.0
2014-Sep-16 04:33N 59°39' E 023°52'1515.0
2014-Sep-16 03:33N 59°33' E 023°24'1715.2
2014-Sep-16 02:25N 59°27' E 022°52'15814.5
2014-Sep-15 15:28N 57°30' E 019°29'1213.7
2014-Sep-15 14:33N 57°20' E 019°15'1413.9
2014-Sep-15 13:33N 57°09' E 018°59'1413.7
2014-Sep-15 12:32N 56°58' E 018°44'1613.7
2014-Sep-15 11:24N 56°46' E 018°25'1313.4
2014-Sep-15 10:26N 56°38' E 018°06'1515.5
2014-Sep-15 09:29N 56°29' E 017°45'1716.2
2014-Sep-15 08:27N 56°19' E 017°21'1516.2
2014-Sep-15 07:30N 56°09' E 016°60'1616.1
2014-Sep-15 06:31N 55°60' E 016°37'4016.8
2014-Sep-15 04:08N 55°40' E 015°35'916.4
2014-Sep-15 03:33N 55°36' E 015°20'1616.4
2014-Sep-15 02:34N 55°28' E 014°54'1616.4
2014-Sep-15 01:33N 55°18' E 014°31'1616.4
2014-Sep-15 00:34N 55°05' E 014°14'1615.9
2014-Sep-14 23:34N 54°58' E 013°49'1616.1
2014-Sep-14 22:33N 54°53' E 013°23'1615.8
2014-Sep-14 21:33N 54°48' E 012°57'1515.3
2014-Sep-14 20:33N 54°41' E 012°33'1414.4
2014-Sep-14 19:34N 54°31' E 012°15'1313.0
2014-Sep-14 18:33N 54°24' E 011°56'1515.1
2014-Sep-14 17:34N 54°29' E 011°31'1615.5
2014-Sep-14 16:34N 54°36' E 011°07'1713.4
2014-Sep-14 15:16N 54°51' E 010°51'9914.3
2014-Sep-14 08:22N 56°27' E 011°33'1416.6
2014-Sep-14 07:33N 56°38' E 011°45'1515.0
2014-Sep-14 06:33N 56°53' E 011°47'1817.8
2014-Sep-14 05:33N 57°10' E 011°36'1616.2
2014-Sep-14 04:33N 57°25' E 011°26'1615.9
2014-Sep-14 03:33N 57°37' E 011°06'1616.0
2014-Sep-14 02:33N 57°48' E 010°43'8115.9
2014-Sep-13 21:26N 57°12' E 008°27'4816.4
2014-Sep-13 18:28N 56°30' E 007°43'2016.9
2014-Sep-13 17:16N 56°11' E 007°34'1216.8
2014-Sep-13 16:33N 55°59' E 007°29'1716.9
2014-Sep-13 15:32N 55°42' E 007°21'1616.6
2014-Sep-13 14:33N 55°26' E 007°23'1616.5
2014-Sep-13 13:33N 55°10' E 007°26'1616.2
2014-Sep-13 12:33N 54°54' E 007°28'1615.9
2014-Sep-13 11:33N 54°38' E 007°29'1615.8
2014-Sep-13 10:33N 54°22' E 007°34'1615.7
2014-Sep-13 09:33N 54°09' E 007°48'1616.1
2014-Sep-13 08:33N 54°00' E 008°11'1817.6
2014-Sep-13 07:33N 53°56' E 008°40'1514.9
2014-Sep-13 06:33N 53°53' E 009°05'1212.2
2014-Sep-13 05:33N 53°47' E 009°23'1212.0
2014-Sep-13 04:33N 53°37' E 009°34'9 9.3
2014-Sep-13 03:33N 53°33' E 009°48'4 3.6
2014-Sep-13 02:28N 53°32' E 009°55'0 0.0
2014-Sep-13 01:33N 53°32' E 009°55'0 0.0
2014-Sep-13 00:33N 53°32' E 009°55'0 0.0
2014-Sep-12 23:30N 53°32' E 009°55'0 0.0
2014-Sep-12 22:29N 53°32' E 009°55'0 0.0
2014-Sep-12 21:26N 53°32' E 009°55'0 0.0
2014-Sep-12 20:28N 53°32' E 009°55'0 0.0
2014-Sep-12 19:25N 53°32' E 009°55'0 0.0
2014-Sep-12 18:31N 53°32' E 009°55'0 0.0
2014-Sep-12 17:33N 53°32' E 009°55'0 0.0
2014-Sep-12 16:33N 53°32' E 009°55'0 0.0
2014-Sep-12 15:33N 53°32' E 009°55'0 0.0
2014-Sep-12 14:33N 53°32' E 009°55'0 0.0
2014-Sep-12 13:30N 53°32' E 009°55'0 0.0
2014-Sep-12 12:32N 53°32' E 009°55'0 0.0
2014-Sep-12 11:29N 53°32' E 009°55'0 0.0
2014-Sep-12 10:31N 53°32' E 009°55'0 0.1
2014-Sep-12 09:33N 53°32' E 009°55'0 0.1
2014-Sep-12 08:28N 53°32' E 009°55'0 0.0
2014-Sep-12 07:33N 53°32' E 009°55'0 0.0
2014-Sep-12 06:33N 53°32' E 009°55'0 0.0
2014-Sep-12 05:33N 53°32' E 009°55'1 1.1
2014-Sep-12 04:33N 53°32' E 009°53'9 8.6
2014-Sep-12 03:33N 53°34' E 009°39'1211.8
2014-Sep-12 02:34N 53°44' E 009°27'1312.7
2014-Sep-12 01:33N 53°53' E 009°12'1111.0
2014-Sep-12 00:33N 53°50' E 008°53'1212.1
2014-Sep-11 23:33N 53°57' E 008°37'1514.9
2014-Sep-11 22:33N 53°60' E 008°12'9 9.2
2014-Sep-11 21:34N 53°58' E 007°56'  

Dump ship's entire track history